createdAt,value
2023-05-03T00:01:50.606Z,87.87
2023-05-03T00:04:20.262Z,88.55
2023-05-03T00:06:50.047Z,88.74
2023-05-03T00:09:19.701Z,89.31
2023-05-03T00:11:48.956Z,89.00
2023-05-03T00:14:18.212Z,88.99
2023-05-03T00:16:47.488Z,90.12
2023-05-03T00:19:30.518Z,89.74
2023-05-03T00:21:48.288Z,89.54
2023-05-03T00:24:17.812Z,90.10
2023-05-03T00:26:47.063Z,91.25
2023-05-03T00:29:16.498Z,90.24
2023-05-03T00:31:46.011Z,89.93
2023-05-03T00:34:15.539Z,90.54
2023-05-03T00:36:44.766Z,89.95
2023-05-03T00:39:14.479Z,90.55
2023-05-03T00:41:43.707Z,90.25
2023-05-03T00:44:12.983Z,90.26
2023-05-03T00:46:42.344Z,90.47
2023-05-03T00:49:11.844Z,90.96
2023-05-03T00:51:42.022Z,91.65
2023-05-03T00:54:12.300Z,91.42
2023-05-03T00:56:51.081Z,91.54
2023-05-03T00:59:13.657Z,91.35
2023-05-03T01:01:43.113Z,91.82
2023-05-03T01:04:12.848Z,90.86
2023-05-03T01:06:46.099Z,90.80
2023-05-03T01:09:27.864Z,90.84
2023-05-03T01:12:27.964Z,91.31
2023-05-03T01:15:00.864Z,91.58
2023-05-03T01:17:33.172Z,91.16
2023-05-03T01:20:05.869Z,91.05
2023-05-03T01:22:44.427Z,91.38
2023-05-03T01:25:15.247Z,91.25
2023-05-03T01:27:44.575Z,91.15
2023-05-03T01:30:15.795Z,91.18
2023-05-03T01:32:48.268Z,91.38
2023-05-03T01:35:20.314Z,90.86
2023-05-03T01:37:49.803Z,91.54
2023-05-03T01:40:19.913Z,91.06
2023-05-03T01:42:49.865Z,90.98
2023-05-03T01:45:19.533Z,90.79
2023-05-03T01:47:49.283Z,91.26
2023-05-03T01:50:18.674Z,91.79
2023-05-03T01:52:51.281Z,91.33
2023-05-03T01:55:20.648Z,91.50
2023-05-03T01:57:49.935Z,91.37
2023-05-03T02:00:20.956Z,91.80
2023-05-03T02:02:50.559Z,92.10
2023-05-03T02:05:19.920Z,91.56
2023-05-03T02:07:49.194Z,91.17
2023-05-03T02:10:18.854Z,91.01
2023-05-03T02:12:48.706Z,90.69
2023-05-03T02:15:20.218Z,91.82
2023-05-03T02:17:51.215Z,91.47
2023-05-03T02:20:20.907Z,90.18
2023-05-03T02:22:50.245Z,89.03
2023-05-03T02:25:20.830Z,88.63
2023-05-03T02:27:50.132Z,88.32
2023-05-03T02:30:19.432Z,88.52
2023-05-03T02:32:48.759Z,88.54
2023-05-03T02:35:18.959Z,89.10
2023-05-03T02:37:48.622Z,88.93
2023-05-03T02:40:18.382Z,88.72
2023-05-03T02:42:48.194Z,89.64
2023-05-03T02:45:18.863Z,89.34
2023-05-03T02:47:48.147Z,89.99
2023-05-03T02:50:17.896Z,89.62
2023-05-03T02:52:47.613Z,89.92
2023-05-03T02:55:17.438Z,89.88
2023-05-03T02:57:47.099Z,89.99
2023-05-03T03:00:17.726Z,90.40
2023-05-03T03:02:47.866Z,91.44
2023-05-03T03:05:17.769Z,90.65
2023-05-03T03:07:48.758Z,91.67
2023-05-03T03:10:18.593Z,91.32
2023-05-03T03:12:50.383Z,91.91
2023-05-03T03:15:22.154Z,91.68
2023-05-03T03:17:52.070Z,90.70
2023-05-03T03:20:21.327Z,90.75
2023-05-03T03:22:51.436Z,91.00
2023-05-03T03:25:21.539Z,90.69
2023-05-03T03:27:51.321Z,90.86
2023-05-03T03:30:20.649Z,91.03
2023-05-03T03:32:52.008Z,90.85
2023-05-03T03:35:23.330Z,91.07
2023-05-03T03:37:53.161Z,91.37
2023-05-03T03:40:24.382Z,92.24
2023-05-03T03:42:54.556Z,92.37
2023-05-03T03:45:24.492Z,91.26
2023-05-03T03:47:54.033Z,91.26
2023-05-03T03:50:25.500Z,91.29
2023-05-03T03:52:55.561Z,91.23
2023-05-03T03:55:24.909Z,91.37
2023-05-03T03:57:55.110Z,91.66
2023-05-03T04:00:25.225Z,91.53
2023-05-03T04:02:56.742Z,92.27
2023-05-03T04:05:26.920Z,91.98
2023-05-03T04:07:56.342Z,91.75
2023-05-03T04:10:27.260Z,91.67
2023-05-03T04:12:56.813Z,91.91
2023-05-03T04:15:26.081Z,92.21
2023-05-03T04:17:57.076Z,91.87
2023-05-03T04:20:28.137Z,91.69
2023-05-03T04:22:57.672Z,92.14
2023-05-03T04:25:30.324Z,92.24
2023-05-03T04:28:01.266Z,93.18
2023-05-03T04:30:32.231Z,93.33
2023-05-03T04:33:03.881Z,93.54
2023-05-03T04:35:36.154Z,94.35
2023-05-03T04:38:07.370Z,94.48
2023-05-03T04:40:37.563Z,94.60
2023-05-03T04:43:11.535Z,94.52
2023-05-03T04:45:42.808Z,94.60
2023-05-03T04:48:13.907Z,94.39
2023-05-03T04:50:43.204Z,94.03
2023-05-03T04:53:13.442Z,93.27
2023-05-03T04:55:43.960Z,93.11
2023-05-03T04:58:13.294Z,93.30
2023-05-03T05:00:43.862Z,92.84
2023-05-03T05:03:14.900Z,92.65
2023-05-03T05:05:44.552Z,91.39
2023-05-03T05:08:14.203Z,90.47
2023-05-03T05:10:45.377Z,90.08
2023-05-03T05:13:16.733Z,89.43
2023-05-03T05:15:46.171Z,89.41
2023-05-03T05:18:15.759Z,87.95
2023-05-03T05:20:46.666Z,88.38
2023-05-03T05:23:16.510Z,84.83
2023-05-03T05:25:46.924Z,80.43
2023-05-03T05:28:16.548Z,77.27
2023-05-03T05:30:46.483Z,73.04
2023-05-03T05:33:17.507Z,72.19
2023-05-03T05:35:48.633Z,71.80
2023-05-03T05:38:20.080Z,73.55
2023-05-03T05:40:51.225Z,72.39
2023-05-03T05:43:21.275Z,71.95
2023-05-03T05:45:50.774Z,68.77
2023-05-03T05:48:21.071Z,69.47
2023-05-03T05:50:50.852Z,71.31
2023-05-03T05:53:20.260Z,71.81
2023-05-03T05:55:51.284Z,73.19
2023-05-03T05:58:21.080Z,73.58
2023-05-03T06:00:52.877Z,73.46
2023-05-03T06:03:22.416Z,73.44
2023-05-03T06:05:53.019Z,73.98
2023-05-03T06:08:22.621Z,74.69
2023-05-03T06:10:53.352Z,74.95
2023-05-03T06:13:23.546Z,73.77
2023-05-03T06:15:54.197Z,72.64
2023-05-03T06:18:24.419Z,71.67
2023-05-03T06:20:53.905Z,73.78
2023-05-03T06:23:23.448Z,73.70
2023-05-03T06:25:53.872Z,74.26
2023-05-03T06:28:24.192Z,74.16
2023-05-03T06:30:55.912Z,73.25
2023-05-03T06:33:25.610Z,74.26
2023-05-03T06:35:54.932Z,73.44
2023-05-03T06:38:24.598Z,73.14
2023-05-03T06:40:54.206Z,73.58
2023-05-03T06:43:24.012Z,72.14
2023-05-03T06:45:54.981Z,72.43
2023-05-03T06:48:25.437Z,71.89
2023-05-03T06:50:55.563Z,72.51
2023-05-03T06:53:25.153Z,72.25
2023-05-03T06:55:55.013Z,71.18
2023-05-03T06:58:24.456Z,71.71
2023-05-03T07:00:54.559Z,71.61
2023-05-03T07:03:25.137Z,71.31
2023-05-03T07:05:54.532Z,70.99
2023-05-03T07:08:24.065Z,71.24
2023-05-03T07:10:53.702Z,70.52
2023-05-03T07:13:22.954Z,69.73
2023-05-03T07:15:52.295Z,69.41
2023-05-03T07:18:21.656Z,68.80
2023-05-03T07:20:51.502Z,69.84
2023-05-03T07:23:21.313Z,68.92
2023-05-03T07:25:50.671Z,67.62
2023-05-03T07:28:20.211Z,67.80
2023-05-03T07:30:49.749Z,68.27
2023-05-03T07:33:19.545Z,68.53
2023-05-03T07:35:51.102Z,68.71
2023-05-03T07:38:20.825Z,66.93
2023-05-03T07:40:50.117Z,66.41
2023-05-03T07:43:21.237Z,65.53
2023-05-03T07:45:51.098Z,64.84
2023-05-03T07:48:20.444Z,64.46
2023-05-03T07:50:50.196Z,63.86
2023-05-03T07:53:19.816Z,63.95
2023-05-03T07:55:49.094Z,63.42
2023-05-03T07:58:23.213Z,64.04
2023-05-03T08:00:49.547Z,63.05
2023-05-03T08:03:19.103Z,62.75
2023-05-03T08:05:49.002Z,64.75
2023-05-03T08:08:19.625Z,63.87
2023-05-03T08:10:49.202Z,63.62
2023-05-03T08:13:18.438Z,64.49
2023-05-03T08:15:48.084Z,63.66
2023-05-03T08:18:17.390Z,63.68
2023-05-03T08:20:47.165Z,62.91
2023-05-03T08:23:16.662Z,63.62
2023-05-03T08:25:46.134Z,63.44
2023-05-03T08:28:15.385Z,63.07
2023-05-03T08:30:45.174Z,63.35
2023-05-03T08:33:14.454Z,62.99
2023-05-03T08:35:43.872Z,63.05
2023-05-03T08:38:14.085Z,62.94
2023-05-03T08:40:44.099Z,61.86
2023-05-03T08:43:15.009Z,61.97
2023-05-03T08:45:44.288Z,62.91
2023-05-03T08:48:15.528Z,62.76
2023-05-03T08:50:45.623Z,61.79
2023-05-03T08:53:15.182Z,61.81
2023-05-03T08:55:44.693Z,60.65
2023-05-03T08:58:14.524Z,60.97
2023-05-03T09:00:45.370Z,61.87
2023-05-03T09:03:15.078Z,58.77
2023-05-03T09:05:46.029Z,60.17
2023-05-03T09:08:17.143Z,59.48
2023-05-03T09:10:46.721Z,59.87
2023-05-03T09:13:16.429Z,60.48
2023-05-03T09:15:48.046Z,58.60
2023-05-03T09:18:20.737Z,59.18
2023-05-03T09:20:52.755Z,59.50
2023-05-03T09:23:33.367Z,58.59
2023-05-03T09:26:02.858Z,57.28
2023-05-03T09:28:35.622Z,55.78
2023-05-03T09:31:07.082Z,57.78
2023-05-03T09:33:36.571Z,56.06
2023-05-03T09:36:07.072Z,56.63
2023-05-03T09:38:39.899Z,56.07
2023-05-03T09:41:09.690Z,56.37
2023-05-03T09:43:51.808Z,56.29
2023-05-03T09:46:21.456Z,54.00
2023-05-03T09:48:51.366Z,51.25
2023-05-03T09:51:21.593Z,49.16
2023-05-03T09:53:51.539Z,44.95
2023-05-03T09:56:22.544Z,44.13
2023-05-03T09:58:51.816Z,40.60
2023-05-03T10:01:25.286Z,40.98
2023-05-03T10:03:57.634Z,39.51
2023-05-03T10:06:30.410Z,39.93
2023-05-03T10:09:08.632Z,39.93
2023-05-03T10:11:38.235Z,39.12
2023-05-03T10:14:07.770Z,39.71
2023-05-03T10:16:39.011Z,38.08
2023-05-03T10:19:22.503Z,40.15
2023-05-03T10:22:11.718Z,40.74
2023-05-03T10:25:02.703Z,39.98
2023-05-03T10:27:51.743Z,38.48
2023-05-03T10:30:29.871Z,39.98
2023-05-03T10:33:00.342Z,39.06
2023-05-03T10:35:31.283Z,37.46
2023-05-03T10:38:00.621Z,35.93
2023-05-03T10:40:43.856Z,36.97
2023-05-03T10:43:37.128Z,38.20
2023-05-03T10:46:07.936Z,38.19
2023-05-03T10:48:37.288Z,40.79
2023-05-03T10:51:33.893Z,37.10
2023-05-03T10:54:03.118Z,38.85
2023-05-03T10:56:32.678Z,36.82
2023-05-03T10:59:01.986Z,38.92
2023-05-03T11:01:32.324Z,37.93
2023-05-03T11:04:16.945Z,39.58
2023-05-03T11:06:47.952Z,39.10
2023-05-03T11:09:17.314Z,38.43
2023-05-03T11:11:46.842Z,38.36
2023-05-03T11:14:16.107Z,39.66
2023-05-03T11:16:50.315Z,39.74
2023-05-03T11:19:20.346Z,41.70
2023-05-03T11:21:49.902Z,39.86
2023-05-03T11:24:19.260Z,40.21
2023-05-03T11:26:49.100Z,40.13
2023-05-03T11:29:19.604Z,36.76
2023-05-03T11:31:49.710Z,38.09
2023-05-03T11:34:19.343Z,39.71
2023-05-03T11:36:49.650Z,39.84
2023-05-03T11:39:20.859Z,36.31
2023-05-03T11:42:05.136Z,37.19
2023-05-03T11:44:34.869Z,37.33
2023-05-03T11:47:04.515Z,37.82
2023-05-03T11:49:34.155Z,39.47
2023-05-03T11:52:03.756Z,38.25
2023-05-03T11:54:33.127Z,38.71
2023-05-03T11:57:05.605Z,41.19
2023-05-03T11:59:41.428Z,38.71
2023-05-03T12:02:14.095Z,37.75
2023-05-03T12:04:46.416Z,37.58
2023-05-03T12:07:19.164Z,37.39
2023-05-03T12:09:52.937Z,37.51
2023-05-03T12:12:26.922Z,36.47
2023-05-03T12:15:04.872Z,37.49
2023-05-03T12:17:37.931Z,39.54
2023-05-03T12:22:57.636Z,38.63
2023-05-03T12:25:31.075Z,41.40
2023-05-03T12:28:18.491Z,38.37
2023-05-03T12:30:34.241Z,40.10
2023-05-03T12:33:04.994Z,39.51
2023-05-03T12:35:34.799Z,39.55
2023-05-03T12:38:09.167Z,39.69
2023-05-03T12:40:38.124Z,42.54
2023-05-03T12:43:08.043Z,40.14
2023-05-03T12:45:40.561Z,38.15
2023-05-03T12:48:09.170Z,37.79
2023-05-03T12:50:39.841Z,38.22
2023-05-03T12:53:10.527Z,39.51
2023-05-03T12:55:43.450Z,40.73
2023-05-03T13:01:03.014Z,38.95
2023-05-03T13:05:47.304Z,38.98
2023-05-03T13:08:21.516Z,39.32
2023-05-03T13:10:49.448Z,38.81
2023-05-03T13:13:18.955Z,37.74
2023-05-03T13:15:49.505Z,39.90
2023-05-03T13:18:18.819Z,39.28
2023-05-03T13:20:49.389Z,38.99
2023-05-03T13:23:19.005Z,40.53
2023-05-03T13:25:48.301Z,39.99
2023-05-03T13:28:19.203Z,41.01
2023-05-03T13:30:48.502Z,39.60
2023-05-03T13:33:17.800Z,36.78
2023-05-03T13:35:48.339Z,37.39
2023-05-03T13:38:17.569Z,38.27
2023-05-03T13:40:47.055Z,37.08
2023-05-03T13:43:16.400Z,40.40
2023-05-03T13:45:45.920Z,39.77
2023-05-03T13:48:18.532Z,40.26
2023-05-03T13:50:46.541Z,38.96
2023-05-03T13:53:16.570Z,41.67
2023-05-03T13:55:45.933Z,38.39
2023-05-03T13:58:15.278Z,38.88
2023-05-03T14:00:45.813Z,41.39
2023-05-03T14:03:15.423Z,41.89
2023-05-03T14:06:03.842Z,42.00
2023-05-03T14:08:33.283Z,40.13
2023-05-03T14:11:05.419Z,40.72
2023-05-03T14:13:43.546Z,39.80
2023-05-03T14:16:06.979Z,41.44
2023-05-03T14:18:36.320Z,38.35
2023-05-03T14:21:07.080Z,36.50
2023-05-03T14:23:36.337Z,36.76
2023-05-03T14:26:06.364Z,40.80
2023-05-03T14:28:36.150Z,37.23
2023-05-03T14:31:06.907Z,38.81
2023-05-03T14:33:36.637Z,39.97
2023-05-03T14:36:11.038Z,39.65
2023-05-03T14:38:40.304Z,38.95
2023-05-03T14:41:09.674Z,39.99
2023-05-03T14:43:39.160Z,38.68
2023-05-03T14:46:10.439Z,39.06
2023-05-03T14:48:39.751Z,40.41
2023-05-03T14:51:09.397Z,39.37
2023-05-03T14:53:38.727Z,37.13
2023-05-03T14:56:08.455Z,38.82
2023-05-03T14:58:38.047Z,37.07
2023-05-03T15:01:07.431Z,39.60
2023-05-03T15:03:36.896Z,38.83
2023-05-03T15:06:06.607Z,40.23
2023-05-03T15:08:35.852Z,39.03
2023-05-03T15:11:06.072Z,37.96
2023-05-03T15:13:35.882Z,37.87
2023-05-03T15:16:05.953Z,39.58
2023-05-03T15:18:35.265Z,37.39
2023-05-03T15:21:04.710Z,39.16
2023-05-03T15:23:34.010Z,38.11
2023-05-03T15:26:03.399Z,38.96
2023-05-03T15:28:32.734Z,38.32
2023-05-03T15:31:02.377Z,38.10
2023-05-03T15:33:32.245Z,37.04
2023-05-03T15:36:01.823Z,38.01
2023-05-03T15:38:31.092Z,36.34
2023-05-03T15:41:00.814Z,37.53
2023-05-03T15:43:30.078Z,37.43
2023-05-03T15:45:59.496Z,35.61
2023-05-03T15:48:28.821Z,37.27
2023-05-03T15:50:58.137Z,35.66
2023-05-03T15:53:28.221Z,37.46
2023-05-03T15:55:58.277Z,37.13
2023-05-03T15:58:29.843Z,37.86
2023-05-03T16:01:00.100Z,37.22
2023-05-03T16:03:29.766Z,38.97
2023-05-03T16:05:59.751Z,38.00
2023-05-03T16:08:30.679Z,38.00
2023-05-03T16:10:59.916Z,38.41
2023-05-03T16:13:30.196Z,38.59
2023-05-03T16:15:59.445Z,38.46
2023-05-03T16:18:28.778Z,40.48
2023-05-03T16:20:58.426Z,38.09
2023-05-03T16:23:27.883Z,38.23
2023-05-03T16:25:57.809Z,37.48
2023-05-03T16:28:27.753Z,37.87
2023-05-03T16:30:57.174Z,36.48
2023-05-03T16:33:26.458Z,37.84
2023-05-03T16:35:56.606Z,38.16
2023-05-03T16:38:27.524Z,37.71
2023-05-03T16:40:58.779Z,37.11
2023-05-03T16:43:28.546Z,39.18
2023-05-03T16:46:02.383Z,39.36
2023-05-03T16:48:32.216Z,39.02
2023-05-03T16:51:02.317Z,40.28
2023-05-03T16:53:31.617Z,39.98
2023-05-03T16:56:01.719Z,40.95
2023-05-03T16:58:30.977Z,41.91
2023-05-03T17:01:00.354Z,41.41
2023-05-03T17:03:29.787Z,41.72
2023-05-03T17:06:01.414Z,41.10
2023-05-03T17:08:31.245Z,43.46
2023-05-03T17:11:02.334Z,43.27
2023-05-03T17:13:31.936Z,43.16
2023-05-03T17:16:03.101Z,43.58
2023-05-03T17:18:34.448Z,42.80
2023-05-03T17:21:04.762Z,45.02
2023-05-03T17:23:38.399Z,46.32
2023-05-03T17:26:09.884Z,45.35
2023-05-03T17:28:39.515Z,45.61
2023-05-03T17:31:09.174Z,45.62
2023-05-03T17:33:38.541Z,47.21
2023-05-03T17:36:08.966Z,46.57
2023-05-03T17:38:38.300Z,48.19
2023-05-03T17:41:11.881Z,47.59
2023-05-03T17:43:41.430Z,47.23
2023-05-03T17:46:12.968Z,47.25
2023-05-03T17:48:47.765Z,48.83
2023-05-03T17:51:17.306Z,48.37
2023-05-03T17:53:46.821Z,48.24
2023-05-03T17:56:17.159Z,48.47
2023-05-03T17:58:47.252Z,49.12
2023-05-03T18:01:17.197Z,49.89
2023-05-03T18:03:46.870Z,49.04
2023-05-03T18:06:16.947Z,50.94
2023-05-03T18:08:47.281Z,50.91
2023-05-03T18:11:17.344Z,51.07
2023-05-03T18:13:46.790Z,50.67
2023-05-03T18:16:17.064Z,50.35
2023-05-03T18:18:46.936Z,50.78
2023-05-03T18:21:16.993Z,51.51
2023-05-03T18:23:47.679Z,50.67
2023-05-03T18:26:17.236Z,51.17
2023-05-03T18:28:46.592Z,51.89
2023-05-03T18:31:16.143Z,51.25
2023-05-03T18:33:46.046Z,52.61
2023-05-03T18:36:15.855Z,51.22
2023-05-03T18:38:47.122Z,51.97
2023-05-03T18:41:17.492Z,51.99
2023-05-03T18:43:48.087Z,52.97
2023-05-03T18:46:21.012Z,52.36
2023-05-03T18:48:51.575Z,52.93
2023-05-03T18:51:20.905Z,55.30
2023-05-03T18:53:50.914Z,54.98
2023-05-03T18:56:20.289Z,55.40
2023-05-03T18:58:50.004Z,56.61
2023-05-03T19:01:19.303Z,55.36
2023-05-03T19:03:48.686Z,56.51
2023-05-03T19:06:17.984Z,56.21
2023-05-03T19:08:48.829Z,56.26
2023-05-03T19:11:19.109Z,56.80
2023-05-03T19:13:48.382Z,56.46
2023-05-03T19:16:18.068Z,56.88
2023-05-03T19:18:48.142Z,57.48
2023-05-03T19:21:17.567Z,57.04
2023-05-03T19:23:47.325Z,56.56
2023-05-03T19:26:16.656Z,58.29
2023-05-03T19:28:47.349Z,59.67
2023-05-03T19:31:17.760Z,58.91
2023-05-03T19:33:47.290Z,58.84
2023-05-03T19:36:17.049Z,59.91
2023-05-03T19:38:46.670Z,59.49
2023-05-03T19:41:16.842Z,60.97
2023-05-03T19:43:46.180Z,59.76
2023-05-03T19:46:16.815Z,60.50
2023-05-03T19:48:46.175Z,60.52
2023-05-03T19:51:16.966Z,60.85
2023-05-03T19:53:48.737Z,60.99
2023-05-03T19:56:18.491Z,61.60
2023-05-03T19:58:48.043Z,62.33
2023-05-03T20:01:17.633Z,61.31
2023-05-03T20:03:47.791Z,61.97
2023-05-03T20:06:17.428Z,61.30
2023-05-03T20:08:47.446Z,61.42
2023-05-03T20:11:19.627Z,60.99
2023-05-03T20:13:49.175Z,60.01
2023-05-03T20:16:20.902Z,60.59
2023-05-03T20:18:49.655Z,60.74
2023-05-03T20:21:19.025Z,61.06
2023-05-03T20:23:49.459Z,60.51
2023-05-03T20:26:19.205Z,60.81
2023-05-03T20:28:48.728Z,61.74
2023-05-03T20:31:18.079Z,61.66
2023-05-03T20:33:47.722Z,60.81
2023-05-03T20:36:17.088Z,62.16
2023-05-03T20:38:46.649Z,63.30
2023-05-03T20:41:17.866Z,62.58
2023-05-03T20:43:47.237Z,63.44
2023-05-03T20:46:16.881Z,64.10
2023-05-03T20:48:46.327Z,63.68
2023-05-03T20:51:17.386Z,64.33
2023-05-03T20:53:51.221Z,64.16
2023-05-03T20:56:21.337Z,65.84
2023-05-03T20:58:50.768Z,64.41
2023-05-03T21:01:22.012Z,65.88
2023-05-03T21:03:51.321Z,65.82
2023-05-03T21:06:21.555Z,65.76
2023-05-03T21:08:53.052Z,65.97
2023-05-03T21:11:23.365Z,66.91
2023-05-03T21:13:52.645Z,66.02
2023-05-03T21:16:22.229Z,66.07
2023-05-03T21:18:55.565Z,65.73
2023-05-03T21:21:25.255Z,66.49
2023-05-03T21:23:54.531Z,67.40
2023-05-03T21:26:24.441Z,66.78
2023-05-03T21:28:53.833Z,67.16
2023-05-03T21:31:23.503Z,66.72
2023-05-03T21:33:52.868Z,69.04
2023-05-03T21:36:23.139Z,69.05
2023-05-03T21:38:53.240Z,68.37
2023-05-03T21:41:24.061Z,67.82
2023-05-03T21:43:53.435Z,68.42
2023-05-03T21:46:23.094Z,68.40
2023-05-03T21:48:52.524Z,68.58
2023-05-03T21:51:23.126Z,68.48
2023-05-03T21:53:52.636Z,69.02
2023-05-03T21:56:22.023Z,69.92
2023-05-03T21:58:51.300Z,68.30
2023-05-03T22:01:21.847Z,68.58
2023-05-03T22:03:51.483Z,69.20
2023-05-03T22:06:21.794Z,69.20
2023-05-03T22:08:51.027Z,70.33
2023-05-03T22:11:21.192Z,70.24
2023-05-03T22:14:06.083Z,69.78
2023-05-03T22:16:22.948Z,70.09
2023-05-03T22:18:53.002Z,69.71
2023-05-03T22:21:22.321Z,70.32
2023-05-03T22:23:52.049Z,70.10
2023-05-03T22:26:21.339Z,71.02
2023-05-03T22:28:50.953Z,70.78
2023-05-03T22:31:20.543Z,71.15
2023-05-03T22:33:50.132Z,72.76
2023-05-03T22:36:19.604Z,72.64
2023-05-03T22:38:49.019Z,71.86
2023-05-03T22:41:18.300Z,71.78
2023-05-03T22:43:48.032Z,70.98
2023-05-03T22:46:17.340Z,71.26
2023-05-03T22:48:46.771Z,71.25
2023-05-03T22:51:16.077Z,71.83
2023-05-03T22:53:45.859Z,71.49
2023-05-03T22:56:15.685Z,72.16
2023-05-03T22:58:45.313Z,71.61
2023-05-03T23:01:15.523Z,71.54
2023-05-03T23:03:45.005Z,72.56
2023-05-03T23:06:15.121Z,72.72
2023-05-03T23:08:44.496Z,73.41
2023-05-03T23:11:13.813Z,73.93
2023-05-03T23:13:43.711Z,73.78
2023-05-03T23:16:13.061Z,73.63
2023-05-03T23:18:42.822Z,74.24
2023-05-03T23:21:12.115Z,74.86
2023-05-03T23:23:41.822Z,75.33
2023-05-03T23:26:11.445Z,75.91
2023-05-03T23:28:41.482Z,75.42
2023-05-03T23:31:11.405Z,75.41
2023-05-03T23:33:41.688Z,75.70
2023-05-03T23:36:11.322Z,75.95
2023-05-03T23:38:40.592Z,75.67
2023-05-03T23:41:09.873Z,75.44
2023-05-03T23:43:39.121Z,76.69
2023-05-03T23:46:08.879Z,75.62
2023-05-03T23:48:38.160Z,76.36
2023-05-03T23:51:07.750Z,76.00
2023-05-03T23:53:37.001Z,76.28
2023-05-03T23:56:06.727Z,76.16
2023-05-03T23:58:36.237Z,76.05
